SIA8412 ZGGG-WSSS
Flight info
| Callsign | SIA8412 |
|---|---|
| Flight time | N/A |
| Altitude | 37100 |
| Route | VIBOS9 VIBOS R473 SIERA/N0490F371 DCT EPDOS L642 EPKAL/K0907F371 L642 ESPOB/N0491F371 Q801 ESBUM Q802 ELALO ELALO1A |
| Aircraft | B77W/H-SDE1E2E3FGHIJ2J3J4J5M1RWXY/LB1D1 |
Departure
| Time | 2026-05-05 11:41 |
|---|---|
| Airport | Guangzhou Baiyun International Airport (ZGGG) |
Arrival
| Time | N/A |
|---|---|
| Airport | Singapore Changi Airport (WSSS) |
| Time | Latitude | Longitude | Altitude | Speed | Heading |
|---|---|---|---|---|---|
| 2026-05-05 11:14 | 23.39780 | 113.30608 | 57 ft | 0 kts | 258° |
| 2026-05-05 11:24 | 23.39783 | 113.30619 | 57 ft | 2 kts | 258° |
| 2026-05-05 11:24 | 23.39786 | 113.30635 | 57 ft | 2 kts | 258° |
| 2026-05-05 11:24 | 23.39789 | 113.30650 | 57 ft | 2 kts | 258° |
| 2026-05-05 11:24 | 23.39792 | 113.30666 | 57 ft | 1 kts | 258° |
| 2026-05-05 11:25 | 23.39794 | 113.30677 | 57 ft | 2 kts | 255° |
| 2026-05-05 11:25 | 23.39799 | 113.30694 | 57 ft | 2 kts | 243° |
| 2026-05-05 11:25 | 23.39807 | 113.30708 | 57 ft | 2 kts | 233° |
| 2026-05-05 11:25 | 23.39817 | 113.30722 | 57 ft | 2 kts | 224° |
| 2026-05-05 11:26 | 23.39825 | 113.30730 | 57 ft | 2 kts | 218° |
| 2026-05-05 11:26 | 23.39843 | 113.30742 | 57 ft | 2 kts | 205° |
| 2026-05-05 11:26 | 23.39857 | 113.30748 | 57 ft | 2 kts | 196° |
| 2026-05-05 11:26 | 23.39863 | 113.30750 | 57 ft | 0 kts | 193° |
| 2026-05-05 11:31 | 23.39860 | 113.30749 | 57 ft | 1 kts | 193° |
| 2026-05-05 11:31 | 23.39829 | 113.30741 | 57 ft | 7 kts | 193° |
| 2026-05-05 11:32 | 23.39758 | 113.30759 | 57 ft | 14 kts | 132° |
| 2026-05-05 11:32 | 23.39712 | 113.30884 | 57 ft | 20 kts | 135° |
| 2026-05-05 11:32 | 23.39553 | 113.30868 | 57 ft | 27 kts | 194° |
| 2026-05-05 11:32 | 23.39349 | 113.30814 | 57 ft | 33 kts | 193° |
| 2026-05-05 11:33 | 23.39099 | 113.30747 | 57 ft | 39 kts | 194° |
| 2026-05-05 11:33 | 23.38816 | 113.30673 | 57 ft | 44 kts | 194° |
| 2026-05-05 11:33 | 23.38499 | 113.30584 | 57 ft | 48 kts | 194° |
| 2026-05-05 11:33 | 23.38237 | 113.30514 | 57 ft | 33 kts | 193° |
| 2026-05-05 11:34 | 23.38021 | 113.30454 | 57 ft | 30 kts | 194° |
| 2026-05-05 11:34 | 23.37818 | 113.30400 | 57 ft | 28 kts | 194° |
| 2026-05-05 11:34 | 23.37720 | 113.30373 | 57 ft | 0 kts | 194° |
| 2026-05-05 11:36 | 23.37713 | 113.30372 | 57 ft | 4 kts | 194° |
| 2026-05-05 11:36 | 23.37672 | 113.30361 | 57 ft | 7 kts | 191° |
| 2026-05-05 11:37 | 23.37614 | 113.30383 | 57 ft | 11 kts | 118° |
| 2026-05-05 11:37 | 23.37587 | 113.30482 | 57 ft | 15 kts | 104° |
| 2026-05-05 11:37 | 23.37558 | 113.30609 | 57 ft | 17 kts | 104° |
| 2026-05-05 11:37 | 23.37509 | 113.30714 | 57 ft | 15 kts | 165° |
| 2026-05-05 11:38 | 23.37408 | 113.30693 | 57 ft | 14 kts | 194° |
| 2026-05-05 11:38 | 23.37314 | 113.30666 | 57 ft | 13 kts | 194° |
| 2026-05-05 11:38 | 23.37226 | 113.30642 | 57 ft | 12 kts | 194° |
| 2026-05-05 11:38 | 23.37143 | 113.30619 | 57 ft | 11 kts | 194° |
| 2026-05-05 11:39 | 23.37063 | 113.30598 | 57 ft | 11 kts | 192° |
| 2026-05-05 11:39 | 23.36999 | 113.30624 | 57 ft | 9 kts | 119° |
| 2026-05-05 11:39 | 23.36997 | 113.30629 | 57 ft | 0 kts | 109° |
| 2026-05-05 11:40 | 23.36991 | 113.30648 | 57 ft | 7 kts | 109° |
| 2026-05-05 11:40 | 23.36984 | 113.30743 | 57 ft | 16 kts | 62° |
| 2026-05-05 11:41 | 23.37120 | 113.30813 | 57 ft | 29 kts | 15° |
| 2026-05-05 11:41 | 23.37557 | 113.30930 | 57 ft | 112 kts | 14° |
| 2026-05-05 11:41 | 23.38619 | 113.31218 | 251 ft | 187 kts | 15° |
| 2026-05-05 11:41 | 23.39856 | 113.31555 | 1531 ft | 188 kts | 15° |
| 2026-05-05 11:42 | 23.41120 | 113.31896 | 2610 ft | 199 kts | 15° |
| 2026-05-05 11:42 | 23.42536 | 113.32282 | 3653 ft | 222 kts | 14° |
| 2026-05-05 11:42 | 23.44054 | 113.32692 | 4904 ft | 237 kts | 13° |
| 2026-05-05 11:42 | 23.45677 | 113.33128 | 6184 ft | 251 kts | 12° |
| 2026-05-05 11:43 | 23.47420 | 113.33598 | 7501 ft | 266 kts | 11° |
| 2026-05-05 11:43 | 23.49248 | 113.34090 | 8763 ft | 281 kts | 11° |
| 2026-05-05 11:43 | 23.51159 | 113.34607 | 10084 ft | 292 kts | 10° |
| 2026-05-05 11:43 | 23.53177 | 113.35152 | 11379 ft | 305 kts | 10° |
| 2026-05-05 11:44 | 23.55284 | 113.35722 | 12584 ft | 320 kts | 10° |
| 2026-05-05 11:44 | 23.57497 | 113.36242 | 13744 ft | 333 kts | 4° |
| 2026-05-05 11:44 | 23.59855 | 113.36430 | 14889 ft | 345 kts | 355° |
| 2026-05-05 11:44 | 23.62247 | 113.36223 | 15989 ft | 355 kts | 346° |
| 2026-05-05 11:45 | 23.64687 | 113.35578 | 17084 ft | 365 kts | 338° |
| 2026-05-05 11:45 | 23.67067 | 113.34478 | 18126 ft | 371 kts | 329° |
| 2026-05-05 11:45 | 23.69273 | 113.32967 | 18820 ft | 377 kts | 320° |
| 2026-05-05 11:45 | 23.71288 | 113.31007 | 19290 ft | 390 kts | 311° |
| 2026-05-05 11:46 | 23.73003 | 113.28590 | 19720 ft | 403 kts | 301° |
| 2026-05-05 11:46 | 23.74279 | 113.25801 | 20324 ft | 412 kts | 290° |
| 2026-05-05 11:46 | 23.75063 | 113.22746 | 21077 ft | 417 kts | 281° |
| 2026-05-05 11:46 | 23.75323 | 113.19567 | 21830 ft | 422 kts | 271° |
| 2026-05-05 11:47 | 23.75054 | 113.16317 | 22509 ft | 430 kts | 262° |
| 2026-05-05 11:47 | 23.74258 | 113.13162 | 23249 ft | 437 kts | 252° |
| 2026-05-05 11:47 | 23.72921 | 113.10097 | 24055 ft | 443 kts | 243° |
| 2026-05-05 11:47 | 23.71119 | 113.07313 | 24792 ft | 452 kts | 234° |
| 2026-05-05 11:48 | 23.66281 | 113.02747 | 26191 ft | 472 kts | 217° |
| 2026-05-05 11:48 | 23.63336 | 113.01065 | 26903 ft | 482 kts | 208° |
| 2026-05-05 11:48 | 23.60124 | 112.99867 | 27580 ft | 493 kts | 200° |
| 2026-05-05 11:49 | 23.56641 | 112.99203 | 28173 ft | 507 kts | 191° |
| 2026-05-05 11:49 | 23.53037 | 112.99165 | 28800 ft | 519 kts | 181° |
| 2026-05-05 11:49 | 23.49357 | 112.99802 | 29398 ft | 532 kts | 171° |
| 2026-05-05 11:49 | 23.45759 | 113.00983 | 30096 ft | 537 kts | 167° |
| 2026-05-05 11:50 | 23.42146 | 113.02285 | 30913 ft | 535 kts | 167° |
| 2026-05-05 11:50 | 23.38480 | 113.03615 | 31687 ft | 534 kts | 167° |
| 2026-05-05 11:50 | 23.34898 | 113.04913 | 32395 ft | 532 kts | 167° |
| 2026-05-05 11:50 | 23.31348 | 113.06198 | 33111 ft | 531 kts | 167° |
| 2026-05-05 11:51 | 23.27759 | 113.07497 | 33885 ft | 529 kts | 167° |
| 2026-05-05 11:51 | 23.24239 | 113.08794 | 34610 ft | 529 kts | 164° |
| 2026-05-05 11:51 | 23.20822 | 113.10328 | 35312 ft | 529 kts | 162° |
| 2026-05-05 11:51 | 23.17339 | 113.11958 | 36034 ft | 526 kts | 162° |
| 2026-05-05 11:52 | 23.13886 | 113.13567 | 36669 ft | 524 kts | 162° |
| 2026-05-05 11:52 | 23.10423 | 113.15169 | 37060 ft | 527 kts | 161° |
| 2026-05-05 11:52 | 23.03526 | 113.18340 | 37075 ft | 526 kts | 162° |
| 2026-05-05 11:53 | 22.96561 | 113.21109 | 37077 ft | 522 kts | 167° |
| 2026-05-05 11:53 | 22.89456 | 113.23508 | 37072 ft | 519 kts | 167° |
| 2026-05-05 11:54 | 22.82451 | 113.25899 | 37063 ft | 519 kts | 167° |
| 2026-05-05 11:54 | 22.75473 | 113.28296 | 37057 ft | 518 kts | 167° |
| 2026-05-05 11:55 | 22.68449 | 113.30716 | 37055 ft | 518 kts | 167° |
| 2026-05-05 11:55 | 22.61464 | 113.33124 | 37059 ft | 519 kts | 167° |
| 2026-05-05 11:56 | 22.54473 | 113.35538 | 37062 ft | 517 kts | 167° |
| 2026-05-05 11:56 | 22.47578 | 113.37917 | 37056 ft | 516 kts | 167° |
| 2026-05-05 11:57 | 22.40671 | 113.40298 | 37062 ft | 516 kts | 167° |
| 2026-05-05 11:57 | 22.33788 | 113.42669 | 37062 ft | 514 kts | 167° |
| 2026-05-05 11:58 | 22.26947 | 113.45023 | 37064 ft | 515 kts | 167° |
| 2026-05-05 11:58 | 22.20068 | 113.47407 | 37065 ft | 514 kts | 166° |
| 2026-05-05 11:59 | 22.13309 | 113.49891 | 37059 ft | 513 kts | 165° |
| 2026-05-05 11:59 | 22.06539 | 113.52380 | 37064 ft | 514 kts | 165° |
| 2026-05-05 12:00 | 21.99701 | 113.54695 | 37061 ft | 507 kts | 173° |
| 2026-05-05 12:00 | 21.92734 | 113.55298 | 37075 ft | 500 kts | 185° |
| 2026-05-05 12:01 | 21.85675 | 113.55324 | 37075 ft | 498 kts | 185° |
| 2026-05-05 12:01 | 21.78706 | 113.55336 | 37069 ft | 497 kts | 185° |
| 2026-05-05 12:02 | 21.71611 | 113.55344 | 37069 ft | 498 kts | 185° |
| 2026-05-05 12:02 | 21.64528 | 113.55351 | 37066 ft | 496 kts | 185° |
| 2026-05-05 12:03 | 21.57569 | 113.55355 | 37068 ft | 496 kts | 185° |
| 2026-05-05 12:03 | 21.50501 | 113.55360 | 37068 ft | 495 kts | 185° |
| 2026-05-05 12:04 | 21.43489 | 113.55364 | 37067 ft | 495 kts | 185° |
| 2026-05-05 12:04 | 21.36485 | 113.55369 | 37064 ft | 494 kts | 185° |
| 2026-05-05 12:05 | 21.29414 | 113.55373 | 37061 ft | 494 kts | 185° |
| 2026-05-05 12:05 | 21.22366 | 113.55376 | 37059 ft | 494 kts | 185° |
| 2026-05-05 12:06 | 21.15345 | 113.55380 | 37058 ft | 493 kts | 185° |
| 2026-05-05 12:06 | 21.08372 | 113.55384 | 37057 ft | 494 kts | 185° |
| 2026-05-05 12:07 | 21.01337 | 113.55389 | 37061 ft | 493 kts | 185° |
| 2026-05-05 12:07 | 20.94332 | 113.55393 | 37054 ft | 493 kts | 185° |
| 2026-05-05 12:08 | 20.87307 | 113.55396 | 37051 ft | 493 kts | 185° |
| 2026-05-05 12:08 | 20.80259 | 113.55400 | 37048 ft | 493 kts | 185° |
| 2026-05-05 12:09 | 20.73261 | 113.55404 | 37047 ft | 494 kts | 185° |
| 2026-05-05 12:09 | 20.66272 | 113.55408 | 37046 ft | 494 kts | 185° |
| 2026-05-05 12:10 | 20.59283 | 113.55411 | 37046 ft | 494 kts | 185° |
| 2026-05-05 12:10 | 20.52140 | 113.55415 | 37040 ft | 495 kts | 185° |
| 2026-05-05 12:11 | 20.45056 | 113.55420 | 37043 ft | 494 kts | 185° |
| 2026-05-05 12:11 | 20.38018 | 113.55423 | 37041 ft | 496 kts | 184° |
| 2026-05-05 12:12 | 20.30935 | 113.55428 | 37036 ft | 496 kts | 184° |
| 2026-05-05 12:12 | 20.23799 | 113.55431 | 37037 ft | 495 kts | 184° |
| 2026-05-05 12:13 | 20.16683 | 113.55435 | 37033 ft | 496 kts | 184° |
| 2026-05-05 12:13 | 20.09554 | 113.55440 | 37035 ft | 496 kts | 184° |
| 2026-05-05 12:14 | 20.02505 | 113.55444 | 37033 ft | 496 kts | 184° |
| 2026-05-05 12:14 | 19.95386 | 113.55447 | 37031 ft | 497 kts | 184° |
| 2026-05-05 12:15 | 19.88179 | 113.55451 | 37028 ft | 498 kts | 184° |
| 2026-05-05 12:15 | 19.81114 | 113.55455 | 37022 ft | 497 kts | 184° |
| 2026-05-05 12:16 | 19.74006 | 113.55459 | 37019 ft | 498 kts | 184° |
| 2026-05-05 12:16 | 19.66892 | 113.55463 | 37012 ft | 499 kts | 184° |
| 2026-05-05 12:17 | 19.59760 | 113.55466 | 37013 ft | 500 kts | 184° |
| 2026-05-05 12:17 | 19.52571 | 113.55471 | 37015 ft | 500 kts | 184° |
| 2026-05-05 12:18 | 19.45428 | 113.55475 | 37014 ft | 499 kts | 184° |
| 2026-05-05 12:18 | 19.38259 | 113.55479 | 37015 ft | 500 kts | 184° |
| 2026-05-05 12:19 | 19.31122 | 113.55482 | 37014 ft | 501 kts | 184° |
| 2026-05-05 12:19 | 19.23927 | 113.55486 | 37013 ft | 501 kts | 183° |
| 2026-05-05 12:20 | 19.16763 | 113.55491 | 37014 ft | 501 kts | 183° |
| 2026-05-05 12:20 | 19.09584 | 113.55495 | 37011 ft | 501 kts | 183° |
| 2026-05-05 12:21 | 19.02435 | 113.55499 | 37012 ft | 501 kts | 183° |
| 2026-05-05 12:21 | 18.95360 | 113.54853 | 37011 ft | 497 kts | 191° |
| 2026-05-05 12:22 | 18.88287 | 113.53835 | 37008 ft | 497 kts | 191° |
| 2026-05-05 12:22 | 18.81245 | 113.52823 | 37009 ft | 497 kts | 191° |
| 2026-05-05 12:23 | 18.74168 | 113.51809 | 37007 ft | 497 kts | 191° |
| 2026-05-05 12:23 | 18.67128 | 113.50803 | 37011 ft | 496 kts | 191° |
| 2026-05-05 12:24 | 18.60126 | 113.49757 | 37003 ft | 494 kts | 195° |
| 2026-05-05 12:24 | 18.53521 | 113.47192 | 37007 ft | 484 kts | 213° |
| 2026-05-05 12:25 | 18.47875 | 113.43105 | 37011 ft | 482 kts | 219° |
| 2026-05-05 12:25 | 18.42303 | 113.38831 | 37011 ft | 482 kts | 219° |
| 2026-05-05 12:26 | 18.36716 | 113.34537 | 37011 ft | 483 kts | 219° |
| 2026-05-05 12:26 | 18.31139 | 113.30249 | 37010 ft | 482 kts | 219° |
| 2026-05-05 12:27 | 18.25571 | 113.25968 | 37013 ft | 481 kts | 219° |
| 2026-05-05 12:27 | 18.20004 | 113.21690 | 37010 ft | 482 kts | 219° |
| 2026-05-05 12:28 | 18.14478 | 113.17447 | 37011 ft | 482 kts | 219° |
| 2026-05-05 12:28 | 18.08869 | 113.13142 | 37011 ft | 482 kts | 219° |
| 2026-05-05 12:29 | 18.03285 | 113.08860 | 37007 ft | 483 kts | 219° |
| 2026-05-05 12:29 | 17.97715 | 113.04592 | 36997 ft | 483 kts | 219° |
| 2026-05-05 12:30 | 17.92171 | 113.00349 | 36988 ft | 482 kts | 219° |
| 2026-05-05 12:30 | 17.86628 | 112.96108 | 36994 ft | 482 kts | 219° |
| 2026-05-05 12:31 | 17.81204 | 112.91878 | 37001 ft | 482 kts | 220° |